sensor_id;sensor_type;location;lat;lon;timestamp;temperature;humidity
38436;DHT22;24220;48.168;14.024;2023-06-14T00:00:00;20.50;53.60
38436;DHT22;24220;48.168;14.024;2023-06-14T00:02:28;20.40;54.10
38436;DHT22;24220;48.168;14.024;2023-06-14T00:04:55;20.40;54.50
38436;DHT22;24220;48.168;14.024;2023-06-14T00:07:37;20.40;54.60
38436;DHT22;24220;48.168;14.024;2023-06-14T00:10:06;20.40;53.80
38436;DHT22;24220;48.168;14.024;2023-06-14T00:12:34;20.30;54.90
38436;DHT22;24220;48.168;14.024;2023-06-14T00:15:02;20.40;54.70
38436;DHT22;24220;48.168;14.024;2023-06-14T00:17:29;20.30;55.40
38436;DHT22;24220;48.168;14.024;2023-06-14T00:19:58;20.30;55.40
38436;DHT22;24220;48.168;14.024;2023-06-14T00:22:30;20.30;55.00
38436;DHT22;24220;48.168;14.024;2023-06-14T00:24:59;20.20;55.50
38436;DHT22;24220;48.168;14.024;2023-06-14T00:27:41;20.20;55.20
38436;DHT22;24220;48.168;14.024;2023-06-14T00:30:09;20.20;55.80
38436;DHT22;24220;48.168;14.024;2023-06-14T00:32:36;20.20;55.90
38436;DHT22;24220;48.168;14.024;2023-06-14T00:35:04;20.10;56.00
38436;DHT22;24220;48.168;14.024;2023-06-14T00:37:32;20.10;56.10
38436;DHT22;24220;48.168;14.024;2023-06-14T00:40:01;20.10;55.60
38436;DHT22;24220;48.168;14.024;2023-06-14T00:42:29;20.10;55.90
38436;DHT22;24220;48.168;14.024;2023-06-14T00:44:56;20.00;56.00
38436;DHT22;24220;48.168;14.024;2023-06-14T00:47:27;20.00;56.10
38436;DHT22;24220;48.168;14.024;2023-06-14T00:50:18;20.00;56.40
38436;DHT22;24220;48.168;14.024;2023-06-14T01:01:22;19.90;55.80
38436;DHT22;24220;48.168;14.024;2023-06-14T01:04:35;19.90;56.60
38436;DHT22;24220;48.168;14.024;2023-06-14T01:19:00;19.70;56.10
38436;DHT22;24220;48.168;14.024;2023-06-14T01:21:32;19.60;55.80
38436;DHT22;24220;48.168;14.024;2023-06-14T01:24:09;19.60;57.10
38436;DHT22;24220;48.168;14.024;2023-06-14T01:26:40;19.60;57.50
38436;DHT22;24220;48.168;14.024;2023-06-14T01:29:14;19.60;57.70
38436;DHT22;24220;48.168;14.024;2023-06-14T01:31:48;19.60;57.60
38436;DHT22;24220;48.168;14.024;2023-06-14T01:34:19;19.60;57.80
38436;DHT22;24220;48.168;14.024;2023-06-14T01:36:47;19.50;57.70
38436;DHT22;24220;48.168;14.024;2023-06-14T01:39:15;19.50;57.70
38436;DHT22;24220;48.168;14.024;2023-06-14T01:41:47;19.50;58.00
38436;DHT22;24220;48.168;14.024;2023-06-14T01:44:17;19.50;58.20
38436;DHT22;24220;48.168;14.024;2023-06-14T01:46:48;19.50;58.00
38436;DHT22;24220;48.168;14.024;2023-06-14T01:49:16;19.40;57.90
38436;DHT22;24220;48.168;14.024;2023-06-14T01:51:46;19.40;58.40
38436;DHT22;24220;48.168;14.024;2023-06-14T01:54:17;19.40;58.00
38436;DHT22;24220;48.168;14.024;2023-06-14T01:56:45;19.30;58.60
38436;DHT22;24220;48.168;14.024;2023-06-14T01:59:14;19.30;58.70
38436;DHT22;24220;48.168;14.024;2023-06-14T02:01:42;19.30;58.90
38436;DHT22;24220;48.168;14.024;2023-06-14T02:04:10;19.20;58.70
38436;DHT22;24220;48.168;14.024;2023-06-14T02:06:40;19.20;58.90
38436;DHT22;24220;48.168;14.024;2023-06-14T02:09:07;19.10;58.90
38436;DHT22;24220;48.168;14.024;2023-06-14T02:11:52;19.10;58.90
38436;DHT22;24220;48.168;14.024;2023-06-14T02:14:36;19.10;58.40
38436;DHT22;24220;48.168;14.024;2023-06-14T02:17:06;19.00;58.60
38436;DHT22;24220;48.168;14.024;2023-06-14T02:19:35;19.00;59.40
38436;DHT22;24220;48.168;14.024;2023-06-14T02:22:03;19.00;59.40
38436;DHT22;24220;48.168;14.024;2023-06-14T02:24:33;18.90;59.40
38436;DHT22;24220;48.168;14.024;2023-06-14T02:27:02;18.90;59.80
38436;DHT22;24220;48.168;14.024;2023-06-14T02:29:31;18.90;59.60
38436;DHT22;24220;48.168;14.024;2023-06-14T02:31:58;18.80;59.50
38436;DHT22;24220;48.168;14.024;2023-06-14T02:34:26;18.80;59.60
38436;DHT22;24220;48.168;14.024;2023-06-14T02:36:53;18.80;60.00
38436;DHT22;24220;48.168;14.024;2023-06-14T02:39:21;18.80;60.00
38436;DHT22;24220;48.168;14.024;2023-06-14T02:41:50;18.80;60.10
38436;DHT22;24220;48.168;14.024;2023-06-14T02:44:18;18.70;60.00
38436;DHT22;24220;48.168;14.024;2023-06-14T02:46:48;18.70;60.00
38436;DHT22;24220;48.168;14.024;2023-06-14T02:49:15;18.70;60.10
38436;DHT22;24220;48.168;14.024;2023-06-14T02:51:43;18.70;60.20
38436;DHT22;24220;48.168;14.024;2023-06-14T02:54:10;18.70;60.30
38436;DHT22;24220;48.168;14.024;2023-06-14T02:56:38;18.70;60.50
38436;DHT22;24220;48.168;14.024;2023-06-14T02:59:05;18.60;60.50
38436;DHT22;24220;48.168;14.024;2023-06-14T03:01:36;18.60;60.60
38436;DHT22;24220;48.168;14.024;2023-06-14T03:04:06;18.60;60.40
38436;DHT22;24220;48.168;14.024;2023-06-14T03:06:34;18.60;60.60
38436;DHT22;24220;48.168;14.024;2023-06-14T03:09:02;18.60;60.50
38436;DHT22;24220;48.168;14.024;2023-06-14T03:11:34;18.60;60.20
38436;DHT22;24220;48.168;14.024;2023-06-14T03:14:03;18.60;60.50
38436;DHT22;24220;48.168;14.024;2023-06-14T03:16:34;18.50;60.70
38436;DHT22;24220;48.168;14.024;2023-06-14T03:19:01;18.50;60.60
38436;DHT22;24220;48.168;14.024;2023-06-14T03:21:28;18.50;60.90
38436;DHT22;24220;48.168;14.024;2023-06-14T03:23:56;18.50;61.30
38436;DHT22;24220;48.168;14.024;2023-06-14T03:26:23;18.50;61.20
38436;DHT22;24220;48.168;14.024;2023-06-14T03:28:52;18.50;61.20
38436;DHT22;24220;48.168;14.024;2023-06-14T03:31:19;18.50;61.30
38436;DHT22;24220;48.168;14.024;2023-06-14T03:33:49;18.50;61.40
38436;DHT22;24220;48.168;14.024;2023-06-14T03:36:16;18.50;61.30
38436;DHT22;24220;48.168;14.024;2023-06-14T03:38:44;18.50;61.30
38436;DHT22;24220;48.168;14.024;2023-06-14T03:41:12;18.50;61.30
38436;DHT22;24220;48.168;14.024;2023-06-14T03:43:39;18.50;61.10
38436;DHT22;24220;48.168;14.024;2023-06-14T03:46:09;18.50;61.00
38436;DHT22;24220;48.168;14.024;2023-06-14T03:48:36;18.50;61.00
38436;DHT22;24220;48.168;14.024;2023-06-14T03:51:07;18.50;60.90
38436;DHT22;24220;48.168;14.024;2023-06-14T03:53:36;18.50;61.00
38436;DHT22;24220;48.168;14.024;2023-06-14T03:56:20;18.50;60.60
38436;DHT22;24220;48.168;14.024;2023-06-14T03:58:47;18.50;61.00
38436;DHT22;24220;48.168;14.024;2023-06-14T04:01:14;18.50;61.30
38436;DHT22;24220;48.168;14.024;2023-06-14T04:03:42;18.40;61.30
38436;DHT22;24220;48.168;14.024;2023-06-14T04:06:09;18.40;61.40
38436;DHT22;24220;48.168;14.024;2023-06-14T04:08:39;18.40;61.40
38436;DHT22;24220;48.168;14.024;2023-06-14T04:11:09;18.40;61.10
38436;DHT22;24220;48.168;14.024;2023-06-14T04:13:36;18.40;61.20
38436;DHT22;24220;48.168;14.024;2023-06-14T04:16:05;18.40;61.20
38436;DHT22;24220;48.168;14.024;2023-06-14T04:18:32;18.40;61.40
38436;DHT22;24220;48.168;14.024;2023-06-14T04:20:59;18.40;61.40
38436;DHT22;24220;48.168;14.024;2023-06-14T04:23:27;18.30;61.50
38436;DHT22;24220;48.168;14.024;2023-06-14T04:25:57;18.40;61.50
38436;DHT22;24220;48.168;14.024;2023-06-14T04:28:31;18.40;61.60
38436;DHT22;24220;48.168;14.024;2023-06-14T04:30:59;18.40;61.30
38436;DHT22;24220;48.168;14.024;2023-06-14T04:33:31;18.40;61.40
38436;DHT22;24220;48.168;14.024;2023-06-14T04:35:58;18.40;61.60
38436;DHT22;24220;48.168;14.024;2023-06-14T04:38:31;18.40;62.10
38436;DHT22;24220;48.168;14.024;2023-06-14T04:41:04;18.40;62.40
38436;DHT22;24220;48.168;14.024;2023-06-14T04:43:33;18.40;63.00
38436;DHT22;24220;48.168;14.024;2023-06-14T04:46:05;18.50;62.70
38436;DHT22;24220;48.168;14.024;2023-06-14T04:48:40;18.40;63.10
38436;DHT22;24220;48.168;14.024;2023-06-14T04:51:10;18.50;63.50
38436;DHT22;24220;48.168;14.024;2023-06-14T04:53:37;18.50;63.30
38436;DHT22;24220;48.168;14.024;2023-06-14T04:56:06;18.50;63.10
38436;DHT22;24220;48.168;14.024;2023-06-14T04:58:34;18.60;62.90
38436;DHT22;24220;48.168;14.024;2023-06-14T05:01:04;18.50;62.90
38436;DHT22;24220;48.168;14.024;2023-06-14T05:03:34;18.60;62.40
38436;DHT22;24220;48.168;14.024;2023-06-14T05:06:01;18.60;63.20
38436;DHT22;24220;48.168;14.024;2023-06-14T05:08:29;18.60;62.90
38436;DHT22;24220;48.168;14.024;2023-06-14T05:10:58;18.60;63.00
38436;DHT22;24220;48.168;14.024;2023-06-14T05:13:28;18.70;62.90
38436;DHT22;24220;48.168;14.024;2023-06-14T05:15:59;18.70;63.50
38436;DHT22;24220;48.168;14.024;2023-06-14T05:18:30;18.80;62.90
38436;DHT22;24220;48.168;14.024;2023-06-14T05:20:57;18.80;63.50
38436;DHT22;24220;48.168;14.024;2023-06-14T05:23:27;18.90;63.70
38436;DHT22;24220;48.168;14.024;2023-06-14T05:25:54;18.80;63.20
38436;DHT22;24220;48.168;14.024;2023-06-14T05:28:22;18.90;63.30
38436;DHT22;24220;48.168;14.024;2023-06-14T05:30:50;18.90;62.80
38436;DHT22;24220;48.168;14.024;2023-06-14T05:33:18;18.90;63.70
38436;DHT22;24220;48.168;14.024;2023-06-14T05:35:48;18.90;63.70
38436;DHT22;24220;48.168;14.024;2023-06-14T05:38:18;19.00;63.80
38436;DHT22;24220;48.168;14.024;2023-06-14T05:40:47;19.10;64.40
38436;DHT22;24220;48.168;14.024;2023-06-14T05:43:14;19.10;64.80
38436;DHT22;24220;48.168;14.024;2023-06-14T05:45:42;19.10;63.80
38436;DHT22;24220;48.168;14.024;2023-06-14T05:48:09;19.20;63.50
38436;DHT22;24220;48.168;14.024;2023-06-14T05:50:37;19.20;64.00
38436;DHT22;24220;48.168;14.024;2023-06-14T05:53:06;19.30;64.20
38436;DHT22;24220;48.168;14.024;2023-06-14T05:55:34;19.40;64.80
38436;DHT22;24220;48.168;14.024;2023-06-14T05:58:03;19.50;65.00
38436;DHT22;24220;48.168;14.024;2023-06-14T06:00:31;19.50;66.40
38436;DHT22;24220;48.168;14.024;2023-06-14T06:02:59;19.60;66.90
38436;DHT22;24220;48.168;14.024;2023-06-14T06:05:26;19.70;65.80
38436;DHT22;24220;48.168;14.024;2023-06-14T06:07:53;19.80;65.30
38436;DHT22;24220;48.168;14.024;2023-06-14T06:10:21;19.90;66.10
38436;DHT22;24220;48.168;14.024;2023-06-14T06:12:50;19.90;65.00
38436;DHT22;24220;48.168;14.024;2023-06-14T06:15:21;20.00;64.90
38436;DHT22;24220;48.168;14.024;2023-06-14T06:17:48;20.10;63.80
38436;DHT22;24220;48.168;14.024;2023-06-14T06:20:23;20.20;65.10
38436;DHT22;24220;48.168;14.024;2023-06-14T06:22:57;20.20;64.20
38436;DHT22;24220;48.168;14.024;2023-06-14T06:25:26;20.30;63.60
38436;DHT22;24220;48.168;14.024;2023-06-14T06:27:58;20.40;64.70
38436;DHT22;24220;48.168;14.024;2023-06-14T06:30:28;20.50;64.50
38436;DHT22;24220;48.168;14.024;2023-06-14T06:32:55;20.50;62.60
38436;DHT22;24220;48.168;14.024;2023-06-14T06:35:23;20.60;63.20
38436;DHT22;24220;48.168;14.024;2023-06-14T06:37:50;20.60;62.70
38436;DHT22;24220;48.168;14.024;2023-06-14T06:40:21;20.70;62.80
38436;DHT22;24220;48.168;14.024;2023-06-14T06:42:49;20.80;63.50
38436;DHT22;24220;48.168;14.024;2023-06-14T06:45:17;20.90;62.80
38436;DHT22;24220;48.168;14.024;2023-06-14T06:47:50;20.90;61.90
38436;DHT22;24220;48.168;14.024;2023-06-14T06:50:18;21.00;61.90
38436;DHT22;24220;48.168;14.024;2023-06-14T06:52:45;21.10;62.50
38436;DHT22;24220;48.168;14.024;2023-06-14T06:55:13;21.10;62.80
38436;DHT22;24220;48.168;14.024;2023-06-14T06:57:41;21.20;62.40
38436;DHT22;24220;48.168;14.024;2023-06-14T07:00:09;21.30;62.90
38436;DHT22;24220;48.168;14.024;2023-06-14T07:02:41;21.40;61.80
38436;DHT22;24220;48.168;14.024;2023-06-14T07:05:09;21.50;61.40
38436;DHT22;24220;48.168;14.024;2023-06-14T07:07:38;21.60;62.60
38436;DHT22;24220;48.168;14.024;2023-06-14T07:10:06;21.60;61.80
38436;DHT22;24220;48.168;14.024;2023-06-14T07:12:36;21.70;61.30
38436;DHT22;24220;48.168;14.024;2023-06-14T07:15:08;21.80;61.50
38436;DHT22;24220;48.168;14.024;2023-06-14T07:17:37;21.90;61.10
38436;DHT22;24220;48.168;14.024;2023-06-14T07:20:05;22.00;59.90
38436;DHT22;24220;48.168;14.024;2023-06-14T07:22:35;22.00;60.00
38436;DHT22;24220;48.168;14.024;2023-06-14T07:25:02;22.10;61.10
38436;DHT22;24220;48.168;14.024;2023-06-14T07:27:31;22.20;60.40
38436;DHT22;24220;48.168;14.024;2023-06-14T07:30:00;22.30;59.90
38436;DHT22;24220;48.168;14.024;2023-06-14T07:32:30;22.30;59.50
38436;DHT22;24220;48.168;14.024;2023-06-14T07:34:58;22.40;58.60
38436;DHT22;24220;48.168;14.024;2023-06-14T07:37:25;22.40;58.80
38436;DHT22;24220;48.168;14.024;2023-06-14T07:39:55;22.50;59.20
38436;DHT22;24220;48.168;14.024;2023-06-14T07:42:23;22.50;58.30
38436;DHT22;24220;48.168;14.024;2023-06-14T07:44:50;22.60;58.80
38436;DHT22;24220;48.168;14.024;2023-06-14T07:47:19;22.60;58.30
38436;DHT22;24220;48.168;14.024;2023-06-14T07:49:49;22.70;57.70
38436;DHT22;24220;48.168;14.024;2023-06-14T07:52:16;22.80;58.20
38436;DHT22;24220;48.168;14.024;2023-06-14T07:54:44;22.90;58.10
38436;DHT22;24220;48.168;14.024;2023-06-14T07:57:12;23.00;57.30
38436;DHT22;24220;48.168;14.024;2023-06-14T07:59:42;23.10;56.80
38436;DHT22;24220;48.168;14.024;2023-06-14T08:02:09;23.10;56.50
38436;DHT22;24220;48.168;14.024;2023-06-14T08:04:37;23.10;55.40
38436;DHT22;24220;48.168;14.024;2023-06-14T08:07:07;23.20;55.30
38436;DHT22;24220;48.168;14.024;2023-06-14T08:09:36;23.20;55.30
38436;DHT22;24220;48.168;14.024;2023-06-14T08:12:07;23.20;56.50
38436;DHT22;24220;48.168;14.024;2023-06-14T08:14:37;23.20;55.60
38436;DHT22;24220;48.168;14.024;2023-06-14T08:17:04;23.30;55.40
38436;DHT22;24220;48.168;14.024;2023-06-14T08:19:32;23.30;55.60
38436;DHT22;24220;48.168;14.024;2023-06-14T08:21:59;23.30;54.60
38436;DHT22;24220;48.168;14.024;2023-06-14T08:24:27;23.30;55.80
38436;DHT22;24220;48.168;14.024;2023-06-14T08:26:55;23.40;57.50
38436;DHT22;24220;48.168;14.024;2023-06-14T08:29:23;23.40;57.60
38436;DHT22;24220;48.168;14.024;2023-06-14T08:31:53;23.40;57.20
38436;DHT22;24220;48.168;14.024;2023-06-14T08:34:20;23.50;56.00
38436;DHT22;24220;48.168;14.024;2023-06-14T08:36:48;23.50;54.60
38436;DHT22;24220;48.168;14.024;2023-06-14T08:39:15;23.50;55.40
38436;DHT22;24220;48.168;14.024;2023-06-14T08:41:46;23.60;56.00
38436;DHT22;24220;48.168;14.024;2023-06-14T08:44:18;23.60;54.90
38436;DHT22;24220;48.168;14.024;2023-06-14T08:46:48;23.70;55.20
38436;DHT22;24220;48.168;14.024;2023-06-14T08:49:17;23.70;55.60
38436;DHT22;24220;48.168;14.024;2023-06-14T08:51:44;23.80;54.80
38436;DHT22;24220;48.168;14.024;2023-06-14T08:54:15;23.80;54.80
38436;DHT22;24220;48.168;14.024;2023-06-14T08:56:42;23.80;54.40
38436;DHT22;24220;48.168;14.024;2023-06-14T08:59:11;23.90;54.50
38436;DHT22;24220;48.168;14.024;2023-06-14T09:01:39;23.90;53.80
38436;DHT22;24220;48.168;14.024;2023-06-14T09:04:29;23.90;54.90
38436;DHT22;24220;48.168;14.024;2023-06-14T09:06:57;23.90;56.10
38436;DHT22;24220;48.168;14.024;2023-06-14T09:09:25;24.00;55.00
38436;DHT22;24220;48.168;14.024;2023-06-14T09:11:55;24.00;56.10
38436;DHT22;24220;48.168;14.024;2023-06-14T09:14:23;24.10;55.80
38436;DHT22;24220;48.168;14.024;2023-06-14T09:16:55;24.20;55.90
38436;DHT22;24220;48.168;14.024;2023-06-14T09:19:25;24.30;55.90
38436;DHT22;24220;48.168;14.024;2023-06-14T09:21:55;24.30;55.00
38436;DHT22;24220;48.168;14.024;2023-06-14T09:24:26;24.40;55.80
38436;DHT22;24220;48.168;14.024;2023-06-14T09:26:54;24.50;56.70
38436;DHT22;24220;48.168;14.024;2023-06-14T09:29:21;24.50;55.40
38436;DHT22;24220;48.168;14.024;2023-06-14T09:31:51;24.60;55.90
38436;DHT22;24220;48.168;14.024;2023-06-14T09:34:21;24.70;55.40
38436;DHT22;24220;48.168;14.024;2023-06-14T09:36:50;24.70;54.30
38436;DHT22;24220;48.168;14.024;2023-06-14T09:39:18;24.70;53.40
38436;DHT22;24220;48.168;14.024;2023-06-14T09:41:45;24.80;52.50
38436;DHT22;24220;48.168;14.024;2023-06-14T09:44:15;24.90;52.60
38436;DHT22;24220;48.168;14.024;2023-06-14T09:46:48;24.90;52.60
38436;DHT22;24220;48.168;14.024;2023-06-14T09:49:16;24.90;51.90
38436;DHT22;24220;48.168;14.024;2023-06-14T09:51:45;25.00;52.30
38436;DHT22;24220;48.168;14.024;2023-06-14T09:54:16;25.00;51.90
38436;DHT22;24220;48.168;14.024;2023-06-14T09:56:47;25.10;50.70
38436;DHT22;24220;48.168;14.024;2023-06-14T09:59:19;25.10;51.60
38436;DHT22;24220;48.168;14.024;2023-06-14T10:01:49;25.20;52.80
38436;DHT22;24220;48.168;14.024;2023-06-14T10:04:19;25.20;55.30
38436;DHT22;24220;48.168;14.024;2023-06-14T10:06:50;25.40;52.30
38436;DHT22;24220;48.168;14.024;2023-06-14T10:09:18;25.50;51.80
38436;DHT22;24220;48.168;14.024;2023-06-14T10:11:45;25.60;51.70
38436;DHT22;24220;48.168;14.024;2023-06-14T10:14:13;25.60;50.70
38436;DHT22;24220;48.168;14.024;2023-06-14T10:19:43;25.90;51.10
38436;DHT22;24220;48.168;14.024;2023-06-14T10:22:17;25.90;50.00
38436;DHT22;24220;48.168;14.024;2023-06-14T10:24:46;26.00;50.40
38436;DHT22;24220;48.168;14.024;2023-06-14T10:27:17;26.10;50.40
38436;DHT22;24220;48.168;14.024;2023-06-14T10:32:21;26.30;49.90
38436;DHT22;24220;48.168;14.024;2023-06-14T10:34:59;26.40;49.70
38436;DHT22;24220;48.168;14.024;2023-06-14T10:37:27;26.60;49.80
38436;DHT22;24220;48.168;14.024;2023-06-14T10:39:57;26.60;49.10
38436;DHT22;24220;48.168;14.024;2023-06-14T10:42:34;26.70;48.70
38436;DHT22;24220;48.168;14.024;2023-06-14T10:45:01;26.70;47.50
38436;DHT22;24220;48.168;14.024;2023-06-14T10:47:36;26.80;48.40
38436;DHT22;24220;48.168;14.024;2023-06-14T10:50:08;26.80;46.70
38436;DHT22;24220;48.168;14.024;2023-06-14T10:52:41;26.90;48.30
38436;DHT22;24220;48.168;14.024;2023-06-14T10:55:13;27.00;48.20
38436;DHT22;24220;48.168;14.024;2023-06-14T11:00:22;27.10;47.60
38436;DHT22;24220;48.168;14.024;2023-06-14T11:06:13;27.30;47.50
38436;DHT22;24220;48.168;14.024;2023-06-14T11:08:56;27.40;46.10
38436;DHT22;24220;48.168;14.024;2023-06-14T11:11:31;27.50;46.10
38436;DHT22;24220;48.168;14.024;2023-06-14T11:14:00;27.50;45.50
38436;DHT22;24220;48.168;14.024;2023-06-14T11:16:29;27.60;47.80
38436;DHT22;24220;48.168;14.024;2023-06-14T11:19:01;27.60;47.90
38436;DHT22;24220;48.168;14.024;2023-06-14T11:21:32;27.70;46.00
38436;DHT22;24220;48.168;14.024;2023-06-14T11:24:03;27.80;48.60
38436;DHT22;24220;48.168;14.024;2023-06-14T11:26:31;27.90;47.80
38436;DHT22;24220;48.168;14.024;2023-06-14T11:29:00;27.90;45.20
38436;DHT22;24220;48.168;14.024;2023-06-14T11:31:29;28.10;46.50
38436;DHT22;24220;48.168;14.024;2023-06-14T11:33:58;28.20;48.70
38436;DHT22;24220;48.168;14.024;2023-06-14T11:36:30;28.30;47.10
38436;DHT22;24220;48.168;14.024;2023-06-14T11:38:59;28.40;48.60
38436;DHT22;24220;48.168;14.024;2023-06-14T11:41:36;28.60;46.60
38436;DHT22;24220;48.168;14.024;2023-06-14T11:44:03;28.70;47.30
38436;DHT22;24220;48.168;14.024;2023-06-14T11:46:34;28.90;46.60
38436;DHT22;24220;48.168;14.024;2023-06-14T11:49:03;29.00;46.10
38436;DHT22;24220;48.168;14.024;2023-06-14T11:51:37;29.10;44.70
38436;DHT22;24220;48.168;14.024;2023-06-14T11:54:06;29.20;42.40
38436;DHT22;24220;48.168;14.024;2023-06-14T11:56:36;29.30;43.00
38436;DHT22;24220;48.168;14.024;2023-06-14T11:59:06;29.40;42.50
38436;DHT22;24220;48.168;14.024;2023-06-14T12:01:36;29.70;43.20
38436;DHT22;24220;48.168;14.024;2023-06-14T12:04:06;29.90;42.90
38436;DHT22;24220;48.168;14.024;2023-06-14T12:06:34;30.20;43.90
38436;DHT22;24220;48.168;14.024;2023-06-14T12:09:07;30.60;44.00
38436;DHT22;24220;48.168;14.024;2023-06-14T12:11:39;31.00;42.80
38436;DHT22;24220;48.168;14.024;2023-06-14T12:14:08;31.40;40.90
38436;DHT22;24220;48.168;14.024;2023-06-14T12:16:38;31.80;41.90
38436;DHT22;24220;48.168;14.024;2023-06-14T12:19:14;32.30;42.30
38436;DHT22;24220;48.168;14.024;2023-06-14T12:21:45;32.80;42.40
38436;DHT22;24220;48.168;14.024;2023-06-14T12:24:16;33.20;42.10
38436;DHT22;24220;48.168;14.024;2023-06-14T12:26:44;33.80;43.90
38436;DHT22;24220;48.168;14.024;2023-06-14T12:29:15;34.30;42.50
38436;DHT22;24220;48.168;14.024;2023-06-14T12:31:44;34.80;40.90
38436;DHT22;24220;48.168;14.024;2023-06-14T12:34:12;35.10;40.40
38436;DHT22;24220;48.168;14.024;2023-06-14T12:36:39;35.40;41.70
38436;DHT22;24220;48.168;14.024;2023-06-14T12:39:11;35.80;41.80
38436;DHT22;24220;48.168;14.024;2023-06-14T12:41:41;36.20;41.90
38436;DHT22;24220;48.168;14.024;2023-06-14T12:44:15;36.40;41.00
38436;DHT22;24220;48.168;14.024;2023-06-14T12:46:43;36.40;39.60
38436;DHT22;24220;48.168;14.024;2023-06-14T12:49:13;36.50;40.50
38436;DHT22;24220;48.168;14.024;2023-06-14T12:51:43;36.60;40.80
38436;DHT22;24220;48.168;14.024;2023-06-14T12:54:10;36.90;40.70
38436;DHT22;24220;48.168;14.024;2023-06-14T12:56:40;37.30;39.40
38436;DHT22;24220;48.168;14.024;2023-06-14T12:59:11;37.80;37.70
38436;DHT22;24220;48.168;14.024;2023-06-14T13:01:39;38.20;39.30
38436;DHT22;24220;48.168;14.024;2023-06-14T13:04:07;38.50;38.10
38436;DHT22;24220;48.168;14.024;2023-06-14T13:06:34;38.80;38.50
38436;DHT22;24220;48.168;14.024;2023-06-14T13:09:02;39.10;37.60
38436;DHT22;24220;48.168;14.024;2023-06-14T13:11:30;39.30;37.50
38436;DHT22;24220;48.168;14.024;2023-06-14T13:13:58;39.50;37.70
38436;DHT22;24220;48.168;14.024;2023-06-14T13:16:43;39.70;36.60
38436;DHT22;24220;48.168;14.024;2023-06-14T13:19:11;40.10;38.10
38436;DHT22;24220;48.168;14.024;2023-06-14T13:21:40;40.30;37.00
38436;DHT22;24220;48.168;14.024;2023-06-14T13:24:07;40.60;37.10
38436;DHT22;24220;48.168;14.024;2023-06-14T13:26:35;40.90;35.30
38436;DHT22;24220;48.168;14.024;2023-06-14T13:29:02;41.20;35.50
38436;DHT22;24220;48.168;14.024;2023-06-14T13:31:33;41.40;34.30
38436;DHT22;24220;48.168;14.024;2023-06-14T13:34:00;41.40;34.70
38436;DHT22;24220;48.168;14.024;2023-06-14T13:36:28;41.40;33.10
38436;DHT22;24220;48.168;14.024;2023-06-14T13:38:57;41.30;33.50
38436;DHT22;24220;48.168;14.024;2023-06-14T13:41:28;41.10;33.50
38436;DHT22;24220;48.168;14.024;2023-06-14T13:44:01;41.00;32.90
38436;DHT22;24220;48.168;14.024;2023-06-14T13:46:31;40.90;33.30
38436;DHT22;24220;48.168;14.024;2023-06-14T13:48:58;40.70;33.90
38436;DHT22;24220;48.168;14.024;2023-06-14T13:51:29;40.50;32.50
38436;DHT22;24220;48.168;14.024;2023-06-14T13:53:57;40.10;33.40
38436;DHT22;24220;48.168;14.024;2023-06-14T13:56:29;39.50;33.60
38436;DHT22;24220;48.168;14.024;2023-06-14T13:58:57;38.80;33.00
38436;DHT22;24220;48.168;14.024;2023-06-14T14:01:24;38.10;32.00
38436;DHT22;24220;48.168;14.024;2023-06-14T14:03:53;37.40;33.50
38436;DHT22;24220;48.168;14.024;2023-06-14T14:06:20;36.70;32.70
38436;DHT22;24220;48.168;14.024;2023-06-14T14:08:48;36.00;32.80
38436;DHT22;24220;48.168;14.024;2023-06-14T14:11:15;35.30;33.80
38436;DHT22;24220;48.168;14.024;2023-06-14T14:13:43;34.60;34.40
38436;DHT22;24220;48.168;14.024;2023-06-14T14:16:12;34.00;34.70
38436;DHT22;24220;48.168;14.024;2023-06-14T14:18:40;33.50;35.50
38436;DHT22;24220;48.168;14.024;2023-06-14T14:21:10;33.00;36.20
38436;DHT22;24220;48.168;14.024;2023-06-14T14:23:37;32.60;35.90
38436;DHT22;24220;48.168;14.024;2023-06-14T14:26:08;32.10;36.60
38436;DHT22;24220;48.168;14.024;2023-06-14T14:28:37;31.80;37.70
38436;DHT22;24220;48.168;14.024;2023-06-14T14:31:05;31.40;37.60
38436;DHT22;24220;48.168;14.024;2023-06-14T14:33:32;31.10;38.30
38436;DHT22;24220;48.168;14.024;2023-06-14T14:36:02;30.90;38.10
38436;DHT22;24220;48.168;14.024;2023-06-14T14:38:31;30.60;37.20
38436;DHT22;24220;48.168;14.024;2023-06-14T14:40:58;30.40;37.60
38436;DHT22;24220;48.168;14.024;2023-06-14T14:43:26;30.20;38.80
38436;DHT22;24220;48.168;14.024;2023-06-14T14:45:58;30.00;38.50
38436;DHT22;24220;48.168;14.024;2023-06-14T14:48:28;29.80;38.40
38436;DHT22;24220;48.168;14.024;2023-06-14T14:50:57;29.60;38.00
38436;DHT22;24220;48.168;14.024;2023-06-14T14:53:25;29.50;38.50
38436;DHT22;24220;48.168;14.024;2023-06-14T14:55:52;29.40;39.50
38436;DHT22;24220;48.168;14.024;2023-06-14T14:58:19;29.20;39.80
38436;DHT22;24220;48.168;14.024;2023-06-14T15:00:47;29.10;40.10
38436;DHT22;24220;48.168;14.024;2023-06-14T15:03:15;29.10;40.70
38436;DHT22;24220;48.168;14.024;2023-06-14T15:05:42;29.00;40.60
38436;DHT22;24220;48.168;14.024;2023-06-14T15:08:12;29.00;41.00
38436;DHT22;24220;48.168;14.024;2023-06-14T15:10:40;28.90;42.00
38436;DHT22;24220;48.168;14.024;2023-06-14T15:13:08;28.80;41.10
38436;DHT22;24220;48.168;14.024;2023-06-14T15:15:36;28.80;41.00
38436;DHT22;24220;48.168;14.024;2023-06-14T15:18:06;28.80;41.00
38436;DHT22;24220;48.168;14.024;2023-06-14T15:20:34;28.70;41.60
38436;DHT22;24220;48.168;14.024;2023-06-14T15:23:03;28.60;42.30
38436;DHT22;24220;48.168;14.024;2023-06-14T15:25:31;28.70;41.20
38436;DHT22;24220;48.168;14.024;2023-06-14T15:27:59;28.50;41.00
38436;DHT22;24220;48.168;14.024;2023-06-14T15:30:28;28.50;40.20
38436;DHT22;24220;48.168;14.024;2023-06-14T15:32:56;28.50;40.90
38436;DHT22;24220;48.168;14.024;2023-06-14T15:35:26;28.40;40.80
38436;DHT22;24220;48.168;14.024;2023-06-14T15:37:56;28.40;40.70
38436;DHT22;24220;48.168;14.024;2023-06-14T15:40:23;28.30;41.00
38436;DHT22;24220;48.168;14.024;2023-06-14T15:42:51;28.20;41.00
38436;DHT22;24220;48.168;14.024;2023-06-14T15:45:20;28.20;41.90
38436;DHT22;24220;48.168;14.024;2023-06-14T15:47:52;28.10;40.00
38436;DHT22;24220;48.168;14.024;2023-06-14T15:50:20;28.10;40.70
38436;DHT22;24220;48.168;14.024;2023-06-14T15:52:48;28.00;41.40
38436;DHT22;24220;48.168;14.024;2023-06-14T15:55:18;28.00;41.80
38436;DHT22;24220;48.168;14.024;2023-06-14T15:57:46;28.00;42.80
38436;DHT22;24220;48.168;14.024;2023-06-14T16:00:14;27.90;42.30